Time;durP1;ratioP1;P1;durP2;ratioP2;P2;SDS_P1;SDS_P2;PMS_P1;PMS_P2;Temp;Humidity;BMP_temperature;BMP_pressure;BME280_temperature;BME280_humidity;BME280_pressure;Samples;Min_cycle;Max_cycle;Signal;HPM_P1;HPM_P2
2023/06/05 02:02:22;;;;;;;1.00;1.00;;;;;;;;;;4339142;27;20364;-78
2023/06/05 02:04:48;;;;;;;0.73;0.73;;;;;;;;;;4267738;33;20050;-78
2023/06/05 02:07:15;;;;;;;1.60;0.98;;;;;;;;;;4265016;33;20390;-79
2023/06/05 02:09:42;;;;;;;1.30;1.20;;;;;;;;;;4253551;33;20068;-78
2023/06/05 02:12:15;;;;;;;1.08;0.95;;;;;;;;;;4253850;33;20063;-79
2023/06/05 02:14:44;;;;;;;1.20;1.10;;;;;;;;;;4253723;33;20473;-78
2023/06/05 02:17:13;;;;;;;2.15;1.15;;;;;;;;;;4253258;33;20067;-80
2023/06/05 02:19:40;;;;;;;2.08;1.10;;;;;;;;;;4252703;33;20046;-78
2023/06/05 02:22:06;;;;;;;8.50;0.90;;;;;;;;;;4252676;33;20068;-79
2023/06/05 02:24:32;;;;;;;0.95;0.95;;;;;;;;;;4237998;33;20404;-79
2023/06/05 02:26:59;;;;;;;1.30;0.70;;;;;;;;;;4239134;33;20046;-78
2023/06/05 02:29:25;;;;;;;1.95;0.93;;;;;;;;;;4236748;33;20056;-79
2023/06/05 02:31:51;;;;;;;0.90;0.90;;;;;;;;;;4226370;33;20407;-79
2023/06/05 02:34:17;;;;;;;2.55;1.17;;;;;;;;;;4237794;33;20039;-78
2023/06/05 02:36:45;;;;;;;2.05;1.20;;;;;;;;;;4238756;33;20038;-77
2023/06/05 02:39:12;;;;;;;6.07;0.90;;;;;;;;;;4238364;33;20050;-77
2023/06/05 02:41:38;;;;;;;1.45;1.00;;;;;;;;;;4260170;33;20085;-78
2023/06/05 02:44:04;;;;;;;1.65;1.20;;;;;;;;;;4267142;33;20054;-78
2023/06/05 02:46:30;;;;;;;1.35;1.12;;;;;;;;;;4267336;33;20384;-77
2023/06/05 02:51:36;;;;;;;2.50;1.08;;;;;;;;;;4269045;33;20045;-77
2023/06/05 02:54:04;;;;;;;1.92;1.73;;;;;;;;;;4273894;33;20451;-77
2023/06/05 02:56:30;;;;;;;4.10;1.00;;;;;;;;;;4293451;33;20048;-77
2023/06/05 02:59:02;;;;;;;1.23;1.12;;;;;;;;;;4266844;33;20053;-76
2023/06/05 03:01:34;;;;;;;15.57;0.95;;;;;;;;;;4265954;33;20365;-77
2023/06/05 03:04:02;;;;;;;;;;;;;;;;;;4266411;33;20058;-77
2023/06/05 03:06:33;;;;;;;5.45;1.62;;;;;;;;;;4265553;33;19988;-77
2023/06/05 03:09:01;;;;;;;2.03;1.40;;;;;;;;;;4265480;33;20205;-77
2023/06/05 03:11:27;;;;;;;2.87;1.40;;;;;;;;;;4264456;33;20041;-77
2023/06/05 03:13:53;;;;;;;2.10;1.40;;;;;;;;;;4252359;33;20583;-77
2023/06/05 03:16:19;;;;;;;6.62;1.70;;;;;;;;;;4252515;33;20108;-77
2023/06/05 03:18:47;;;;;;;1.33;1.23;;;;;;;;;;4251930;33;20464;-77
2023/06/05 03:21:13;;;;;;;4.40;1.08;;;;;;;;;;4252404;33;20594;-76
2023/06/05 03:23:40;;;;;;;8.38;1.62;;;;;;;;;;4250436;33;20038;-77
2023/06/05 03:26:06;;;;;;;1.58;1.23;;;;;;;;;;4250459;33;20157;-76
2023/06/05 03:28:33;;;;;;;3.30;1.33;;;;;;;;;;4237798;33;20054;-76
2023/06/05 03:31:00;;;;;;;8.00;1.67;;;;;;;;;;4251815;33;20059;-77
2023/06/05 03:33:28;;;;;;;8.18;3.37;;;;;;;;;;4252660;33;20399;-75
2023/06/05 03:35:55;;;;;;;3.67;1.83;;;;;;;;;;4250682;33;20112;-77
2023/06/05 03:38:23;;;;;;;6.15;1.40;;;;;;;;;;4264910;33;20053;-77
2023/06/05 03:40:49;;;;;;;1.40;1.30;;;;;;;;;;4266326;33;20037;-76
2023/06/05 03:43:17;;;;;;;4.00;1.67;;;;;;;;;;4264866;33;20064;-76
2023/06/05 03:45:43;;;;;;;2.92;1.30;;;;;;;;;;4264436;33;20117;-79
2023/06/05 03:48:10;;;;;;;4.03;1.37;;;;;;;;;;4250646;33;20489;-77
2023/06/05 03:50:41;;;;;;;10.38;1.40;;;;;;;;;;4256731;33;20053;-77
2023/06/05 03:53:07;;;;;;;3.87;1.65;;;;;;;;;;4278629;33;20155;-76
2023/06/05 03:55:45;;;;;;;1.48;1.40;;;;;;;;;;4237950;33;20035;-76
2023/06/05 03:58:13;;;;;;;3.30;1.48;;;;;;;;;;4249300;33;20425;-78
2023/06/05 04:00:44;;;;;;;3.67;1.77;;;;;;;;;;4251777;33;20046;-77
2023/06/05 04:03:11;;;;;;;4.85;2.50;;;;;;;;;;4237358;33;20058;-78
2023/06/05 04:05:40;;;;;;;2.33;1.37;;;;;;;;;;4237783;33;20038;-78
2023/06/05 04:08:07;;;;;;;2.25;1.37;;;;;;;;;;4240940;33;20041;-77
2023/06/05 04:10:34;;;;;;;5.03;1.55;;;;;;;;;;4238370;33;20097;-78
2023/06/05 04:13:01;;;;;;;4.35;1.70;;;;;;;;;;4237458;33;20068;-77
2023/06/05 04:15:27;;;;;;;6.00;1.05;;;;;;;;;;4237038;33;20068;-77
2023/06/05 04:17:55;;;;;;;2.22;1.30;;;;;;;;;;4232772;33;20449;-78
2023/06/05 04:20:21;;;;;;;15.82;1.37;;;;;;;;;;4222266;34;20030;-76
2023/06/05 04:22:47;;;;;;;2.70;1.42;;;;;;;;;;4223680;34;20058;-78
2023/06/05 04:25:14;;;;;;;3.00;1.10;;;;;;;;;;4223852;33;20054;-78
2023/06/05 04:27:42;;;;;;;9.82;1.48;;;;;;;;;;4236472;33;20072;-76
2023/06/05 04:30:09;;;;;;;10.48;1.20;;;;;;;;;;4230088;33;20060;-77
2023/06/05 04:32:38;;;;;;;3.50;1.48;;;;;;;;;;4222330;33;20047;-77
2023/06/05 04:35:05;;;;;;;4.10;1.60;;;;;;;;;;4223600;33;20068;-77
2023/06/05 04:37:32;;;;;;;1.00;0.90;;;;;;;;;;4223202;33;20064;-77
2023/06/05 04:39:58;;;;;;;2.15;1.10;;;;;;;;;;4234909;33;20076;-77
2023/06/05 04:42:25;;;;;;;1.87;0.80;;;;;;;;;;4235773;33;20051;-79
2023/06/05 04:44:58;;;;;;;1.87;1.27;;;;;;;;;;4265335;33;20068;-76
2023/06/05 04:47:25;;;;;;;1.75;1.55;;;;;;;;;;4274198;33;20044;-76
2023/06/05 04:49:52;;;;;;;4.82;1.25;;;;;;;;;;4267675;33;20509;-77
2023/06/05 04:52:20;;;;;;;6.28;1.52;;;;;;;;;;4265099;33;20050;-77
2023/06/05 04:54:48;;;;;;;10.70;1.48;;;;;;;;;;4275020;33;20088;-78
2023/06/05 04:57:16;;;;;;;7.22;1.50;;;;;;;;;;4271762;33;20440;-78
2023/06/05 04:59:43;;;;;;;3.30;1.15;;;;;;;;;;4269367;33;20045;-77
2023/06/05 05:02:10;;;;;;;8.93;1.27;;;;;;;;;;4267600;33;20038;-77
2023/06/05 05:04:37;;;;;;;3.17;1.30;;;;;;;;;;4265296;33;20415;-78
2023/06/05 05:07:03;;;;;;;3.60;1.33;;;;;;;;;;4279928;33;20794;-78
2023/06/05 05:09:36;;;;;;;3.65;1.23;;;;;;;;;;4263703;33;20041;-79
2023/06/05 05:12:03;;;;;;;4.40;1.15;;;;;;;;;;4265216;33;20037;-78
2023/06/05 05:14:29;;;;;;;10.80;1.12;;;;;;;;;;4272942;33;20505;-78
2023/06/05 05:16:56;;;;;;;3.17;1.50;;;;;;;;;;4273380;33;20086;-78
2023/06/05 05:19:22;;;;;;;2.85;0.95;;;;;;;;;;4272182;33;21115;-79
2023/06/05 05:21:50;;;;;;;9.82;1.55;;;;;;;;;;4273729;33;20462;-77
2023/06/05 05:24:16;;;;;;;11.45;1.40;;;;;;;;;;4274892;33;20045;-78
2023/06/05 05:26:42;;;;;;;5.30;1.23;;;;;;;;;;4274281;33;20108;-77
2023/06/05 05:29:09;;;;;;;4.85;1.50;;;;;;;;;;4266984;33;20064;-77
2023/06/05 05:31:35;;;;;;;13.73;1.37;;;;;;;;;;4268532;33;20071;-79
2023/06/05 05:34:01;;;;;;;3.50;1.10;;;;;;;;;;4267581;33;20041;-76
2023/06/05 05:36:28;;;;;;;3.92;1.10;;;;;;;;;;4267387;33;20046;-78
2023/06/05 05:38:54;;;;;;;1.85;1.00;;;;;;;;;;4265407;33;20056;-77
2023/06/05 05:41:23;;;;;;;1.52;1.17;;;;;;;;;;4252656;33;20198;-78
2023/06/05 05:43:49;;;;;;;2.55;1.00;;;;;;;;;;4252345;33;20078;-78
2023/06/05 05:46:15;;;;;;;3.78;1.20;;;;;;;;;;4238599;33;20057;-80
2023/06/05 05:48:41;;;;;;;2.03;1.17;;;;;;;;;;4239501;33;20080;-79
2023/06/05 05:51:08;;;;;;;6.25;1.12;;;;;;;;;;4236842;33;20086;-78
2023/06/05 05:53:47;;;;;;;2.60;1.10;;;;;;;;;;4225872;33;20108;-77
2023/06/05 05:56:13;;;;;;;6.85;1.35;;;;;;;;;;4224915;33;20081;-79
2023/06/05 05:58:40;;;;;;;9.77;1.33;;;;;;;;;;4225183;33;20552;-78
2023/06/05 06:01:06;;;;;;;3.10;1.27;;;;;;;;;;4222671;33;20073;-77
2023/06/05 06:03:36;;;;;;;5.95;1.50;;;;;;;;;;4231067;33;20046;-74
2023/06/05 06:06:06;;;;;;;1.73;1.37;;;;;;;;;;4225264;33;20043;-76
2023/06/05 06:08:33;;;;;;;1.10;1.00;;;;;;;;;;4224646;33;20080;-77
2023/06/05 06:11:01;;;;;;;4.22;1.00;;;;;;;;;;4224326;33;20043;-73
2023/06/05 06:13:27;;;;;;;4.93;1.33;;;;;;;;;;4222678;33;20043;-73
2023/06/05 06:15:53;;;;;;;11.40;1.52;;;;;;;;;;4224577;33;20105;-74
2023/06/05 06:18:20;;;;;;;3.67;1.65;;;;;;;;;;4232249;33;20046;-76
2023/06/05 06:20:47;;;;;;;7.32;0.98;;;;;;;;;;4238567;33;20061;-72
2023/06/05 06:23:12;;;;;;;4.03;0.82;;;;;;;;;;4238260;33;20050;-73
2023/06/05 06:25:39;;;;;;;10.63;1.48;;;;;;;;;;4234613;33;20372;-73
2023/06/05 06:28:06;;;;;;;11.18;1.15;;;;;;;;;;4238343;33;20064;-75
2023/06/05 06:30:32;;;;;;;2.47;1.20;;;;;;;;;;4241845;33;20064;-85
2023/06/05 06:33:04;;;;;;;4.75;1.00;;;;;;;;;;4252728;33;20046;-72
2023/06/05 06:35:33;;;;;;;8.50;1.77;;;;;;;;;;4252998;33;20050;-73
2023/06/05 06:37:59;;;;;;;2.80;0.90;;;;;;;;;;4262994;33;20045;-75
2023/06/05 06:40:26;;;;;;;3.22;0.73;;;;;;;;;;4266514;33;20054;-73
2023/06/05 06:42:52;;;;;;;1.55;0.82;;;;;;;;;;4252327;33;20039;-73
2023/06/05 06:45:20;;;;;;;2.05;1.20;;;;;;;;;;4252922;33;20181;-76
2023/06/05 06:47:46;;;;;;;8.60;1.00;;;;;;;;;;4252957;33;20055;-73
2023/06/05 06:50:13;;;;;;;2.05;1.08;;;;;;;;;;4249343;33;20062;-74
2023/06/05 06:52:39;;;;;;;8.60;2.25;;;;;;;;;;4236114;33;20104;-73
2023/06/05 06:55:06;;;;;;;0.80;0.80;;;;;;;;;;4237214;33;20042;-75
2023/06/05 06:57:32;;;;;;;2.33;0.70;;;;;;;;;;4234677;33;20515;-75
2023/06/05 06:59:59;;;;;;;7.47;0.90;;;;;;;;;;4236246;33;20062;-74
2023/06/05 07:02:25;;;;;;;1.67;1.05;;;;;;;;;;4234514;33;20055;-74
2023/06/05 07:04:53;;;;;;;2.85;0.70;;;;;;;;;;4237915;33;20042;-73
2023/06/05 07:07:21;;;;;;;0.70;0.70;;;;;;;;;;4234989;33;20364;-78
2023/06/05 07:09:48;;;;;;;0.80;0.80;;;;;;;;;;4235334;33;20047;-74
2023/06/05 07:12:16;;;;;;;1.00;0.85;;;;;;;;;;4229847;33;20072;-73
2023/06/05 07:14:42;;;;;;;2.45;0.68;;;;;;;;;;4214113;34;20100;-73
2023/06/05 07:17:09;;;;;;;6.03;1.62;;;;;;;;;;4220110;34;20479;-75
2023/06/05 07:19:38;;;;;;;4.03;0.75;;;;;;;;;;4205268;34;20120;-75
2023/06/05 07:22:05;;;;;;;1.95;0.90;;;;;;;;;;4220467;34;20497;-75
2023/06/05 07:24:32;;;;;;;0.80;0.80;;;;;;;;;;4220656;34;20528;-75
2023/06/05 07:27:02;;;;;;;1.48;0.88;;;;;;;;;;4222466;33;20132;-75
2023/06/05 07:29:28;;;;;;;7.62;0.90;;;;;;;;;;4229053;33;20120;-74
2023/06/05 07:31:55;;;;;;;0.88;0.88;;;;;;;;;;4224121;33;20072;-74
2023/06/05 07:34:22;;;;;;;1.00;0.77;;;;;;;;;;4217037;34;20062;-76
2023/06/05 07:36:50;;;;;;;1.37;0.82;;;;;;;;;;4222224;33;21022;-74
2023/06/05 07:39:16;;;;;;;2.28;0.90;;;;;;;;;;4222669;33;20047;-75
2023/06/05 07:41:43;;;;;;;3.62;0.70;;;;;;;;;;4238703;33;20187;-75
2023/06/05 07:44:10;;;;;;;24.98;10.95;;;;;;;;;;4245726;33;20490;-75
2023/06/05 07:46:36;;;;;;;2.53;1.98;;;;;;;;;;4274519;33;20379;-75
2023/06/05 07:49:03;;;;;;;3.03;0.80;;;;;;;;;;4283240;33;20491;-74
2023/06/05 07:51:29;;;;;;;0.88;0.88;;;;;;;;;;4288769;33;20053;-74
2023/06/05 07:53:56;;;;;;;0.90;0.90;;;;;;;;;;4256387;33;20029;-75
2023/06/05 07:56:25;;;;;;;4.80;3.20;;;;;;;;;;4255046;33;20219;-74
2023/06/05 07:58:52;;;;;;;4.18;1.00;;;;;;;;;;4250669;33;20076;-74
2023/06/05 08:01:17;;;;;;;2.10;1.08;;;;;;;;;;4257519;33;20370;-75
2023/06/05 08:03:44;;;;;;;1.35;1.00;;;;;;;;;;4257913;33;20058;-75
2023/06/05 08:06:10;;;;;;;1.75;1.00;;;;;;;;;;4258815;33;20305;-75
2023/06/05 08:08:36;;;;;;;1.00;0.95;;;;;;;;;;4249287;33;20052;-75
2023/06/05 08:11:03;;;;;;;2.05;1.05;;;;;;;;;;4251773;33;20046;-75
2023/06/05 08:13:29;;;;;;;1.48;0.73;;;;;;;;;;4250660;33;20076;-75
2023/06/05 08:15:55;;;;;;;1.90;0.70;;;;;;;;;;4250812;33;20049;-75
2023/06/05 08:18:22;;;;;;;2.92;0.62;;;;;;;;;;4250564;33;20451;-74
2023/06/05 08:20:48;;;;;;;1.25;0.70;;;;;;;;;;4249220;33;20096;-75
2023/06/05 08:23:16;;;;;;;1.20;1.17;;;;;;;;;;4250556;33;20080;-75
2023/06/05 08:25:43;;;;;;;1.17;0.80;;;;;;;;;;4274273;33;20071;-77
2023/06/05 08:28:09;;;;;;;9.50;2.35;;;;;;;;;;4280188;33;20061;-75
2023/06/05 08:30:35;;;;;;;18.15;2.85;;;;;;;;;;4281283;33;20045;-88
2023/06/05 08:33:02;;;;;;;4.53;1.25;;;;;;;;;;4262005;33;20057;-76
2023/06/05 08:35:28;;;;;;;6.15;1.35;;;;;;;;;;4252623;33;20075;-87
2023/06/05 08:37:55;;;;;;;1.70;1.15;;;;;;;;;;4264231;33;20050;-80
2023/06/05 08:40:22;;;;;;;1.65;1.33;;;;;;;;;;4238616;33;20047;-77
2023/06/05 08:42:49;;;;;;;1.10;1.10;;;;;;;;;;4232921;33;20434;-75
2023/06/05 08:45:15;;;;;;;29.77;3.12;;;;;;;;;;4235243;33;20064;-76
2023/06/05 08:47:42;;;;;;;0.98;0.70;;;;;;;;;;4257116;33;20062;-75
2023/06/05 08:50:09;;;;;;;18.02;2.37;;;;;;;;;;4251820;33;20093;-75
2023/06/05 08:52:41;;;;;;;3.15;1.10;;;;;;;;;;4261554;33;20062;-76
2023/06/05 08:55:08;;;;;;;5.18;0.70;;;;;;;;;;4249343;33;20085;-77
2023/06/05 08:57:36;;;;;;;0.93;0.93;;;;;;;;;;4248350;33;20046;-74
2023/06/05 09:00:07;;;;;;;5.60;0.77;;;;;;;;;;4243320;33;20445;-75
2023/06/05 09:02:34;;;;;;;0.70;0.70;;;;;;;;;;4244484;33;20079;-75
2023/06/05 09:05:01;;;;;;;2.15;0.82;;;;;;;;;;4230462;33;20042;-77
2023/06/05 09:07:28;;;;;;;1.20;1.10;;;;;;;;;;4231476;33;20489;-73
2023/06/05 09:09:55;;;;;;;1.12;1.12;;;;;;;;;;4234177;33;20042;-74
2023/06/05 09:12:21;;;;;;;4.65;0.98;;;;;;;;;;4235649;33;20062;-73
2023/06/05 09:14:47;;;;;;;7.30;1.10;;;;;;;;;;4231870;33;20042;-75
2023/06/05 09:17:14;;;;;;;13.25;1.90;;;;;;;;;;4227868;33;20046;-75
2023/06/05 09:19:42;;;;;;;1.48;1.27;;;;;;;;;;4226151;33;20847;-75
2023/06/05 09:22:09;;;;;;;3.35;0.90;;;;;;;;;;4244705;33;20068;-74
2023/06/05 09:24:36;;;;;;;0.88;0.88;;;;;;;;;;4244366;33;20050;-76
2023/06/05 09:27:06;;;;;;;1.02;0.90;;;;;;;;;;4245163;33;20050;-76
2023/06/05 09:29:33;;;;;;;1.58;1.42;;;;;;;;;;4234375;33;20068;-78
2023/06/05 09:32:03;;;;;;;3.60;1.70;;;;;;;;;;4237710;33;20060;-76
2023/06/05 09:34:33;;;;;;;2.12;1.20;;;;;;;;;;4231633;33;20124;-75
2023/06/05 09:37:00;;;;;;;8.88;1.20;;;;;;;;;;4248569;33;20068;-75
2023/06/05 09:39:27;;;;;;;1.92;1.20;;;;;;;;;;4243466;33;20039;-76
2023/06/05 09:41:54;;;;;;;1.25;1.15;;;;;;;;;;4246837;33;20080;-76
2023/06/05 09:44:21;;;;;;;8.63;1.62;;;;;;;;;;4254520;33;20053;-74
2023/06/05 09:46:53;;;;;;;1.40;1.10;;;;;;;;;;4238642;33;20038;-74
2023/06/05 09:49:19;;;;;;;1.02;1.02;;;;;;;;;;4237311;33;20054;-78
2023/06/05 09:51:46;;;;;;;2.40;1.15;;;;;;;;;;4226697;33;20124;-74
2023/06/05 09:54:13;;;;;;;1.23;0.98;;;;;;;;;;4244437;33;20060;-73
2023/06/05 09:56:40;;;;;;;6.87;1.27;;;;;;;;;;4240280;33;20053;-75
2023/06/05 09:59:08;;;;;;;4.80;1.20;;;;;;;;;;4234358;33;20102;-75
2023/06/05 10:01:35;;;;;;;2.78;1.00;;;;;;;;;;4236036;33;20054;-74
2023/06/05 10:04:05;;;;;;;5.55;1.33;;;;;;;;;;4240511;33;20099;-75
2023/06/05 10:06:33;;;;;;;3.95;1.27;;;;;;;;;;4238586;33;20187;-76
2023/06/05 10:09:00;;;;;;;4.00;1.37;;;;;;;;;;4234928;33;20098;-76
2023/06/05 10:11:27;;;;;;;9.82;1.10;;;;;;;;;;4226084;33;20188;-77
2023/06/05 10:13:53;;;;;;;1.15;1.15;;;;;;;;;;4207687;34;20421;-77
2023/06/05 10:16:20;;;;;;;1.12;1.12;;;;;;;;;;4180677;34;20063;-76
2023/06/05 10:18:47;;;;;;;7.78;1.25;;;;;;;;;;4185139;34;20044;-76
2023/06/05 10:21:17;;;;;;;2.17;1.10;;;;;;;;;;4185514;34;20401;-76
2023/06/05 10:23:50;;;;;;;5.68;1.00;;;;;;;;;;4199940;34;20039;-78
2023/06/05 10:26:36;;;;;;;0.75;0.75;;;;;;;;;;4202677;34;21000;-77
2023/06/05 10:29:09;;;;;;;1.48;0.93;;;;;;;;;;4207184;34;20533;-78
2023/06/05 10:31:47;;;;;;;1.08;1.08;;;;;;;;;;4201442;34;20059;-79
2023/06/05 10:34:18;;;;;;;5.53;2.05;;;;;;;;;;4213612;33;20051;-79
2023/06/05 10:37:03;;;;;;;1.25;1.02;;;;;;;;;;4210365;34;20039;-79
2023/06/05 10:39:30;;;;;;;2.35;1.15;;;;;;;;;;4213717;34;20056;-77
2023/06/05 10:41:58;;;;;;;4.07;1.20;;;;;;;;;;4211985;34;20115;-79
2023/06/05 10:44:43;;;;;;;7.93;1.17;;;;;;;;;;4227214;33;20039;-79
2023/06/05 10:47:28;;;;;;;1.15;0.98;;;;;;;;;;4243485;33;20131;-79
2023/06/05 10:50:12;;;;;;;4.55;3.60;;;;;;;;;;4251395;33;20104;-79
2023/06/05 10:52:39;;;;;;;1.20;1.10;;;;;;;;;;4249350;33;20234;-78
2023/06/05 10:55:05;;;;;;;6.57;4.05;;;;;;;;;;4250727;33;20508;-78
2023/06/05 10:57:50;;;;;;;5.35;1.45;;;;;;;;;;4250706;33;21108;-80
2023/06/05 11:03:40;;;;;;;3.50;1.12;;;;;;;;;;4245734;33;20072;-79
2023/06/05 11:06:12;;;;;;;7.95;1.58;;;;;;;;;;4235442;33;20047;-78
2023/06/05 11:08:38;;;;;;;2.05;1.15;;;;;;;;;;4235509;33;20042;-79
2023/06/05 11:11:06;;;;;;;2.70;1.65;;;;;;;;;;4231398;33;20136;-79
2023/06/05 11:13:51;;;;;;;2.25;1.27;;;;;;;;;;4196092;33;20077;-79
2023/06/05 11:16:30;;;;;;;1.40;1.08;;;;;;;;;;4196365;34;20213;-80
2023/06/05 11:19:14;;;;;;;5.43;1.75;;;;;;;;;;4201181;34;20074;-79
2023/06/05 11:21:59;;;;;;;4.62;1.00;;;;;;;;;;4194507;34;20056;-79
2023/06/05 11:24:26;;;;;;;3.08;1.25;;;;;;;;;;4194479;34;20088;-79
2023/06/05 11:26:52;;;;;;;2.00;1.20;;;;;;;;;;4201671;34;20333;-79
2023/06/05 11:29:18;;;;;;;6.20;1.17;;;;;;;;;;4223920;33;20209;-79
2023/06/05 11:31:45;;;;;;;6.75;1.37;;;;;;;;;;4230716;33;20127;-78
2023/06/05 11:34:12;;;;;;;1.98;1.50;;;;;;;;;;4232981;33;20084;-79
2023/06/05 11:36:38;;;;;;;5.28;1.37;;;;;;;;;;4238093;33;20115;-78
2023/06/05 11:39:05;;;;;;;2.60;1.52;;;;;;;;;;4264924;33;20561;-80
2023/06/05 11:41:31;;;;;;;0.80;0.65;;;;;;;;;;4262947;33;20075;-80
2023/06/05 11:43:57;;;;;;;1.40;1.30;;;;;;;;;;4262875;33;20586;-80
2023/06/05 11:46:40;;;;;;;1.17;1.10;;;;;;;;;;4281556;33;20999;-80
2023/06/05 11:49:06;;;;;;;4.25;1.30;;;;;;;;;;4283817;33;20029;-79
2023/06/05 11:51:34;;;;;;;2.35;1.35;;;;;;;;;;4286178;33;20057;-79
2023/06/05 11:54:01;;;;;;;4.47;1.17;;;;;;;;;;4285377;33;20063;-80
2023/06/05 11:56:28;;;;;;;2.40;1.35;;;;;;;;;;4283484;33;20070;-78
2023/06/05 11:58:54;;;;;;;3.72;1.35;;;;;;;;;;4279984;33;20059;-78
2023/06/05 12:01:25;;;;;;;5.90;1.40;;;;;;;;;;4285009;33;20061;-79
2023/06/05 12:03:51;;;;;;;;;;;;;;;;;;4287402;33;20033;-78
2023/06/05 12:06:17;;;;;;;4.80;1.30;;;;;;;;;;4282665;33;20705;-78
2023/06/05 12:08:44;;;;;;;3.40;1.70;;;;;;;;;;4282796;33;20472;-79
2023/06/05 12:11:26;;;;;;;1.23;1.23;;;;;;;;;;4280954;33;20608;-80
2023/06/05 12:13:56;;;;;;;2.72;1.23;;;;;;;;;;4277818;33;20049;-80
2023/06/05 12:16:33;;;;;;;1.70;1.60;;;;;;;;;;4262796;33;20046;-79
2023/06/05 12:18:59;;;;;;;2.33;2.03;;;;;;;;;;4253613;33;20060;-79
2023/06/05 12:21:27;;;;;;;3.80;1.80;;;;;;;;;;4251585;33;20076;-79
2023/06/05 12:24:02;;;;;;;2.28;1.40;;;;;;;;;;4232372;33;20038;-78
2023/06/05 12:26:32;;;;;;;2.15;1.75;;;;;;;;;;4234734;33;20117;-79
2023/06/05 12:29:05;;;;;;;6.43;2.87;;;;;;;;;;4235081;33;20035;-80
2023/06/05 12:31:35;;;;;;;3.95;1.50;;;;;;;;;;4234094;33;20094;-78
2023/06/05 12:34:02;;;;;;;3.92;1.20;;;;;;;;;;4235137;33;20452;-78
2023/06/05 12:36:28;;;;;;;1.73;1.60;;;;;;;;;;4219986;33;20221;-78
2023/06/05 12:38:55;;;;;;;1.87;1.58;;;;;;;;;;4204538;34;20090;-80
2023/06/05 12:41:21;;;;;;;1.50;1.48;;;;;;;;;;4208500;34;20055;-80
2023/06/05 12:43:58;;;;;;;1.20;1.20;;;;;;;;;;4206886;34;20085;-78
2023/06/05 12:46:24;;;;;;;1.10;1.05;;;;;;;;;;4207155;34;20086;-80
2023/06/05 12:48:51;;;;;;;2.95;1.45;;;;;;;;;;4205755;34;20043;-79
2023/06/05 12:51:17;;;;;;;4.43;1.80;;;;;;;;;;4193670;34;20094;-80
2023/06/05 12:53:50;;;;;;;2.42;1.05;;;;;;;;;;4180823;34;20221;-78
2023/06/05 12:56:16;;;;;;;1.35;1.17;;;;;;;;;;4208970;34;20076;-79
2023/06/05 12:58:42;;;;;;;1.92;1.52;;;;;;;;;;4199088;34;20175;-84
2023/06/05 13:01:09;;;;;;;1.50;1.40;;;;;;;;;;4200829;34;20207;-78
2023/06/05 13:03:36;;;;;;;6.20;1.08;;;;;;;;;;4204945;34;20773;-83
2023/06/05 13:06:02;;;;;;;6.45;1.50;;;;;;;;;;4207633;34;20426;-82
2023/06/05 13:08:30;;;;;;;1.83;1.45;;;;;;;;;;4219993;33;20136;-81
2023/06/05 13:10:56;;;;;;;14.15;5.62;;;;;;;;;;4228066;33;20232;-79
2023/06/05 13:13:22;;;;;;;4.15;2.20;;;;;;;;;;4232861;33;20107;-82
2023/06/05 13:15:49;;;;;;;1.90;1.40;;;;;;;;;;4236632;33;20050;-83
2023/06/05 13:18:15;;;;;;;6.32;1.30;;;;;;;;;;4236019;33;20412;-83
2023/06/05 13:20:41;;;;;;;4.03;1.37;;;;;;;;;;4238830;33;20056;-83
2023/06/05 13:23:07;;;;;;;1.17;1.08;;;;;;;;;;4248718;33;20085;-82
2023/06/05 13:25:33;;;;;;;1.48;1.23;;;;;;;;;;4254467;33;20065;-86
2023/06/05 13:27:59;;;;;;;1.37;1.27;;;;;;;;;;4279755;33;20037;-85
2023/06/05 13:30:26;;;;;;;7.97;1.67;;;;;;;;;;4279981;33;20030;-83
2023/06/05 13:32:53;;;;;;;2.05;1.40;;;;;;;;;;4280371;33;20030;-81
2023/06/05 13:35:20;;;;;;;3.03;1.70;;;;;;;;;;4281873;33;20461;-82
2023/06/05 13:37:48;;;;;;;3.17;1.25;;;;;;;;;;4259473;33;20473;-80
2023/06/05 13:40:15;;;;;;;10.75;5.82;;;;;;;;;;4245060;33;20054;-78
2023/06/05 13:42:41;;;;;;;5.30;1.27;;;;;;;;;;4239784;33;20068;-79
2023/06/05 13:45:07;;;;;;;1.50;1.40;;;;;;;;;;4248902;33;20046;-80
2023/06/05 13:47:33;;;;;;;5.12;1.67;;;;;;;;;;4252366;33;20454;-82
2023/06/05 13:50:00;;;;;;;1.30;1.30;;;;;;;;;;4253472;33;20062;-74
2023/06/05 13:52:32;;;;;;;2.80;1.10;;;;;;;;;;4241512;33;20172;-74
2023/06/05 13:54:59;;;;;;;2.65;1.37;;;;;;;;;;4237829;33;20176;-74
2023/06/05 13:57:25;;;;;;;2.83;1.30;;;;;;;;;;4236653;33;20070;-74
2023/06/05 13:59:51;;;;;;;4.12;1.30;;;;;;;;;;4238029;33;20529;-73
2023/06/05 14:02:17;;;;;;;1.48;1.42;;;;;;;;;;4235515;33;20068;-74
2023/06/05 14:04:44;;;;;;;1.65;1.42;;;;;;;;;;4226593;33;20080;-74
2023/06/05 14:07:10;;;;;;;2.15;1.70;;;;;;;;;;4236390;33;20034;-74
2023/06/05 14:09:36;;;;;;;1.80;1.50;;;;;;;;;;4238686;33;20076;-74
2023/06/05 14:12:03;;;;;;;5.25;1.17;;;;;;;;;;4249072;33;20444;-73
2023/06/05 14:14:29;;;;;;;4.68;1.20;;;;;;;;;;4253318;33;20046;-73
2023/06/05 14:16:55;;;;;;;4.50;1.90;;;;;;;;;;4269452;33;20038;-73
2023/06/05 14:19:22;;;;;;;0.90;0.90;;;;;;;;;;4256606;33;20050;-74
2023/06/05 14:21:49;;;;;;;2.30;2.10;;;;;;;;;;4254192;33;20054;-73
2023/06/05 14:24:15;;;;;;;6.97;1.52;;;;;;;;;;4254217;33;20079;-74
2023/06/05 14:26:42;;;;;;;5.12;1.60;;;;;;;;;;4252895;33;20057;-76
2023/06/05 14:29:08;;;;;;;5.82;1.30;;;;;;;;;;4252288;33;20057;-73
2023/06/05 14:31:34;;;;;;;0.98;0.98;;;;;;;;;;4251880;33;20379;-74
2023/06/05 14:34:00;;;;;;;4.37;1.50;;;;;;;;;;4236418;33;20085;-73
2023/06/05 14:36:26;;;;;;;1.08;1.08;;;;;;;;;;4236090;33;20502;-73
2023/06/05 14:38:53;;;;;;;3.03;1.50;;;;;;;;;;4234616;33;20051;-74
2023/06/05 14:41:19;;;;;;;2.65;1.15;;;;;;;;;;4236110;33;20112;-74
2023/06/05 14:43:45;;;;;;;5.55;1.95;;;;;;;;;;4236606;33;20046;-73
2023/06/05 14:46:11;;;;;;;7.25;1.17;;;;;;;;;;4237034;33;20102;-73
2023/06/05 14:48:37;;;;;;;1.15;1.10;;;;;;;;;;4237180;33;20038;-73
2023/06/05 14:51:04;;;;;;;1.90;1.20;;;;;;;;;;4234571;33;20446;-73
2023/06/05 14:53:32;;;;;;;3.28;1.40;;;;;;;;;;4237753;33;20077;-74
2023/06/05 14:55:58;;;;;;;5.22;1.45;;;;;;;;;;4238767;33;20072;-74
2023/06/05 14:58:24;;;;;;;1.45;1.45;;;;;;;;;;4237339;33;20043;-75
2023/06/05 15:00:50;;;;;;;1.98;1.40;;;;;;;;;;4235824;33;20339;-73
2023/06/05 15:03:17;;;;;;;21.40;14.73;;;;;;;;;;4229345;33;20071;-84
2023/06/05 15:05:43;;;;;;;2.60;1.60;;;;;;;;;;4232351;33;20046;-74
2023/06/05 15:08:10;;;;;;;2.25;1.52;;;;;;;;;;4236856;33;20080;-75
2023/06/05 15:10:36;;;;;;;2.17;1.20;;;;;;;;;;4237159;33;20039;-73
2023/06/05 15:13:03;;;;;;;3.22;2.92;;;;;;;;;;4237415;33;20051;-73
2023/06/05 15:15:29;;;;;;;4.65;1.80;;;;;;;;;;4249157;33;20173;-76
2023/06/05 15:17:56;;;;;;;1.83;1.40;;;;;;;;;;4236249;33;20084;-74
2023/06/05 15:20:22;;;;;;;1.48;1.37;;;;;;;;;;4236200;33;20388;-75
2023/06/05 15:22:49;;;;;;;1.23;1.23;;;;;;;;;;4259779;33;20887;-74
2023/06/05 15:25:15;;;;;;;4.45;1.62;;;;;;;;;;4278147;33;20554;-73
2023/06/05 15:27:42;;;;;;;1.65;1.55;;;;;;;;;;4278757;33;20046;-76
2023/06/05 15:30:08;;;;;;;5.25;1.37;;;;;;;;;;4279767;33;20037;-75
2023/06/05 15:32:35;;;;;;;1.50;1.40;;;;;;;;;;4279322;33;20063;-78
2023/06/05 15:35:00;;;;;;;3.87;1.33;;;;;;;;;;4278960;33;20067;-75
2023/06/05 15:37:27;;;;;;;5.82;1.27;;;;;;;;;;4279094;33;20042;-76
2023/06/05 15:39:53;;;;;;;1.58;1.48;;;;;;;;;;4277397;33;20071;-75
2023/06/05 15:42:31;;;;;;;1.42;1.30;;;;;;;;;;4279121;33;20858;-75
2023/06/05 15:45:08;;;;;;;1.40;1.30;;;;;;;;;;4278186;33;20041;-75
2023/06/05 15:47:35;;;;;;;1.52;1.30;;;;;;;;;;4278121;33;20050;-74
2023/06/05 15:50:01;;;;;;;2.50;1.50;;;;;;;;;;4280191;33;20883;-75
2023/06/05 15:52:30;;;;;;;3.87;1.70;;;;;;;;;;4264684;33;20061;-75
2023/06/05 15:54:58;;;;;;;5.95;1.70;;;;;;;;;;4279135;33;20501;-76
2023/06/05 15:57:25;;;;;;;2.47;1.90;;;;;;;;;;4265988;33;20099;-76
2023/06/05 15:59:51;;;;;;;1.25;1.17;;;;;;;;;;4263566;33;20053;-75
2023/06/05 16:02:18;;;;;;;9.05;1.40;;;;;;;;;;4264349;33;20069;-75
2023/06/05 16:04:45;;;;;;;4.45;2.10;;;;;;;;;;4267134;33;20088;-76
2023/06/05 16:07:11;;;;;;;1.62;1.48;;;;;;;;;;4252202;33;20068;-75
2023/06/05 16:09:37;;;;;;;1.20;1.10;;;;;;;;;;4253153;33;20042;-76
2023/06/05 16:12:04;;;;;;;1.33;1.33;;;;;;;;;;4256599;33;20057;-75
2023/06/05 16:14:30;;;;;;;3.78;1.62;;;;;;;;;;4259281;33;20086;-75
2023/06/05 16:16:57;;;;;;;5.50;1.30;;;;;;;;;;4265692;33;20041;-76
2023/06/05 16:19:23;;;;;;;3.60;1.40;;;;;;;;;;4265505;33;20057;-76
2023/06/05 16:21:50;;;;;;;4.87;1.67;;;;;;;;;;4264198;33;20063;-75
2023/06/05 16:24:16;;;;;;;1.45;1.37;;;;;;;;;;4257963;33;20347;-77
2023/06/05 16:26:42;;;;;;;4.18;1.35;;;;;;;;;;4251419;33;20469;-76
2023/06/05 16:29:09;;;;;;;2.12;1.30;;;;;;;;;;4251441;33;20143;-76
2023/06/05 16:31:36;;;;;;;10.32;1.58;;;;;;;;;;4251341;33;20060;-76
2023/06/05 16:34:08;;;;;;;2.33;1.35;;;;;;;;;;4249328;33;20079;-75
2023/06/05 16:36:35;;;;;;;3.47;1.62;;;;;;;;;;4237809;33;20051;-73
2023/06/05 16:39:01;;;;;;;1.85;1.60;;;;;;;;;;4251232;33;20068;-74
2023/06/05 16:41:27;;;;;;;3.92;1.62;;;;;;;;;;4236491;33;20054;-73
2023/06/05 16:43:53;;;;;;;1.00;1.00;;;;;;;;;;4234102;33;20077;-74
2023/06/05 16:46:21;;;;;;;1.70;1.20;;;;;;;;;;4242532;33;20100;-74
2023/06/05 16:48:48;;;;;;;9.85;1.80;;;;;;;;;;4240853;33;20073;-74
2023/06/05 16:51:15;;;;;;;1.70;1.45;;;;;;;;;;4231603;33;20062;-73
2023/06/05 16:53:41;;;;;;;5.25;1.55;;;;;;;;;;4222037;33;20054;-75